Aviation Digital Data Service (ADDS)

Output produced by METARs form (1251 UTC 19 January 2019)
found at http://www.aviationweather.gov/metar/data/
 
Forecast for: DNMN (MINNA AIRPORT , NG)
Text: TAF DNMN 190930Z 1912/2018 26006KT 6000 NSC
Forecast period: 1200 to 1400 UTC 19 January 2019
Forecast type: FROM: standard forecast or significant change
Winds: from the W (260 degrees) at 7 MPH (6 knots; 3.1 m/s)
Visibility: 4 miles (6 km)
Ceiling: unknown
Clouds: missing
Weather: no significant weather forecast for this period
Text: BECMG 1914/1916 CAVOK
Forecast period: 1400 to 1800 UTC 19 January 2019
Forecast type: BECOMING: Conditions expected to become as follows by 1600 UTC 19 January 2019
Winds: from the W (260 degrees) at 7 MPH (6 knots; 3.1 m/s)
Visibility: 6 or more miles 10+ km)
Ceiling: unknown
Clouds: missing
Weather: NSW  (no significant weather)
Text: BECMG 1918/1920 09010KT
Forecast period: 1800 UTC 19 January 2019 to 1800 UTC 20 January 2019
Forecast type: BECOMING: Conditions expected to become as follows by 2000 UTC 19 January 2019
Winds: from the E (90 degrees) at 12 MPH (10 knots; 5.1 m/s)
Visibility: 6 or more miles 10+ km)
Ceiling: unknown
Clouds: missing
Weather: NSW  (no significant weather)